createdAt,value
2019-05-09T00:01:14.244Z,13.00
2019-05-09T00:03:44.311Z,13.00
2019-05-09T00:06:13.725Z,13.00
2019-05-09T00:08:44.167Z,13.00
2019-05-09T00:11:14.508Z,12.90
2019-05-09T00:13:43.528Z,12.90
2019-05-09T00:16:14.243Z,12.80
2019-05-09T00:18:44.128Z,12.80
2019-05-09T00:21:14.279Z,12.80
2019-05-09T00:23:43.764Z,12.80
2019-05-09T00:26:13.365Z,12.90
2019-05-09T00:28:44.149Z,12.80
2019-05-09T00:31:14.327Z,12.80
2019-05-09T00:33:47.642Z,12.80
2019-05-09T00:36:14.631Z,12.80
2019-05-09T00:38:44.823Z,12.70
2019-05-09T00:41:14.009Z,12.70
2019-05-09T00:43:44.325Z,12.50
2019-05-09T00:46:14.455Z,12.60
2019-05-09T00:48:53.465Z,12.40
2019-05-09T00:51:23.276Z,12.50
2019-05-09T00:53:53.681Z,12.50
2019-05-09T00:56:23.925Z,12.40
2019-05-09T00:58:53.555Z,12.50
2019-05-09T01:01:23.970Z,12.50
2019-05-09T01:03:53.616Z,12.50
2019-05-09T03:09:52.090Z,12.50
2019-05-09T03:12:30.384Z,12.50
2019-05-09T03:14:50.693Z,12.50
2019-05-09T03:17:19.162Z,12.50
2019-05-09T03:19:48.792Z,12.50
2019-05-09T03:22:19.083Z,12.50
2019-05-09T03:24:48.626Z,12.50
2019-05-09T03:27:18.983Z,12.40
2019-05-09T03:29:51.732Z,12.30
2019-05-09T03:32:20.266Z,12.20
2019-05-09T03:34:48.685Z,12.20
2019-05-09T03:37:17.793Z,12.30
2019-05-09T03:39:47.799Z,12.30
2019-05-09T03:42:21.240Z,12.30
2019-05-09T03:44:47.740Z,12.40
2019-05-09T03:47:18.003Z,12.40
2019-05-09T03:49:48.083Z,12.30
2019-05-09T03:52:17.778Z,12.30
2019-05-09T03:54:47.729Z,12.30
2019-05-09T03:57:20.828Z,12.40
2019-05-09T03:59:49.261Z,12.40
2019-05-09T04:02:17.972Z,12.40
2019-05-09T04:04:47.569Z,12.30
2019-05-09T04:07:18.500Z,12.30
2019-05-09T04:09:48.007Z,12.30
2019-05-09T04:12:18.110Z,12.30
2019-05-09T04:14:47.952Z,12.20
2019-05-09T04:17:18.108Z,12.20
2019-05-09T04:19:47.896Z,12.30
2019-05-09T04:22:18.142Z,12.40
2019-05-09T04:24:47.464Z,12.50
2019-05-09T04:27:17.832Z,12.50
2019-05-09T04:29:48.279Z,12.50
2019-05-09T04:32:18.285Z,12.60
2019-05-09T04:34:47.284Z,12.60
2019-05-09T04:37:17.841Z,12.70
2019-05-09T04:39:47.625Z,12.80
2019-05-09T04:42:18.374Z,12.90
2019-05-09T04:44:49.602Z,12.90
2019-05-09T04:47:18.281Z,12.90
2019-05-09T04:49:47.986Z,12.90
2019-05-09T04:52:18.049Z,12.90
2019-05-09T04:54:48.465Z,12.90
2019-05-09T04:57:17.875Z,12.90
2019-05-09T04:59:47.573Z,13.00
2019-05-09T05:02:20.526Z,13.00
2019-05-09T05:04:48.971Z,13.00
2019-05-09T05:07:18.192Z,13.00
2019-05-09T05:09:48.397Z,13.00
2019-05-09T05:12:18.534Z,13.00
2019-05-09T05:14:47.684Z,13.10
2019-05-09T05:17:17.973Z,13.10
2019-05-09T05:19:47.666Z,13.20
2019-05-09T05:22:23.683Z,13.20
2019-05-09T05:24:55.912Z,13.20
2019-05-09T05:27:23.959Z,13.20
2019-05-09T05:29:52.414Z,13.10
2019-05-09T05:32:25.221Z,13.10
2019-05-09T05:34:58.044Z,13.00
2019-05-09T05:37:28.057Z,13.00
2019-05-09T05:39:58.317Z,13.00
2019-05-09T05:42:28.195Z,13.10
2019-05-09T05:44:58.270Z,13.20
2019-05-09T05:47:29.381Z,13.10
2019-05-09T05:49:57.942Z,13.10
2019-05-09T05:52:27.765Z,13.10
2019-05-09T05:54:58.230Z,13.10
2019-05-09T05:57:27.983Z,13.10
2019-05-09T05:59:58.554Z,13.20
2019-05-09T06:02:28.112Z,13.10
2019-05-09T06:04:57.914Z,13.20
2019-05-09T06:07:28.528Z,13.30
2019-05-09T06:09:57.594Z,13.30
2019-05-09T06:12:27.606Z,13.40
2019-05-09T06:14:58.135Z,13.50
2019-05-09T06:17:28.452Z,13.60
2019-05-09T06:19:58.954Z,13.50
2019-05-09T06:22:27.600Z,13.40
2019-05-09T06:24:58.113Z,13.40
2019-05-09T06:27:27.566Z,13.40
2019-05-09T06:29:58.182Z,13.40
2019-05-09T06:32:27.959Z,13.60
2019-05-09T06:34:57.805Z,13.70
2019-05-09T06:37:27.645Z,13.80
2019-05-09T06:39:58.265Z,13.80
2019-05-09T06:42:28.676Z,14.00
2019-05-09T06:45:04.243Z,14.10
2019-05-09T06:47:38.090Z,14.10
2019-05-09T06:50:08.501Z,13.80
2019-05-09T06:52:37.547Z,13.80
2019-05-09T06:55:08.671Z,13.90
2019-05-09T06:57:40.110Z,13.90
2019-05-09T07:00:09.632Z,13.90
2019-05-09T07:02:51.482Z,13.90
2019-05-09T07:05:21.573Z,13.90
2019-05-09T07:08:08.154Z,14.00
2019-05-09T07:10:37.785Z,14.00
2019-05-09T07:13:07.917Z,14.10
2019-05-09T07:15:37.645Z,14.10
2019-05-09T07:18:08.159Z,14.10
2019-05-09T07:20:37.844Z,14.20
2019-05-09T07:23:08.425Z,14.40
2019-05-09T07:25:38.253Z,14.30
2019-05-09T07:28:07.639Z,14.20
2019-05-09T07:30:40.559Z,14.40
2019-05-09T07:33:13.325Z,14.50
2019-05-09T07:35:41.781Z,14.50
2019-05-09T07:38:10.222Z,14.40
2019-05-09T07:40:38.805Z,14.40
2019-05-09T07:43:07.862Z,14.50
2019-05-09T07:45:38.437Z,14.30
2019-05-09T07:48:07.632Z,14.30
2019-05-09T07:50:38.856Z,14.20
2019-05-09T07:53:08.556Z,14.20
2019-05-09T07:55:37.910Z,14.10
2019-05-09T07:58:08.040Z,14.20
2019-05-09T08:00:38.529Z,14.20
2019-05-09T08:03:10.310Z,14.10
2019-05-09T08:05:38.513Z,14.40
2019-05-09T08:08:10.311Z,14.50
2019-05-09T08:10:38.805Z,14.60
2019-05-09T08:13:09.100Z,14.80
2019-05-09T08:15:38.425Z,14.90
2019-05-09T08:18:08.470Z,14.90
2019-05-09T08:20:40.386Z,14.80
2019-05-09T08:23:08.642Z,14.90
2019-05-09T08:25:38.286Z,15.00
2019-05-09T08:28:09.100Z,15.00
2019-05-09T08:30:40.099Z,15.00
2019-05-09T08:33:08.285Z,15.00
2019-05-09T08:35:38.302Z,15.10
2019-05-09T08:38:08.586Z,15.20
2019-05-09T08:40:38.126Z,15.40
2019-05-09T08:43:07.717Z,15.40
2019-05-09T08:45:38.300Z,15.40
2019-05-09T08:48:09.095Z,15.30
2019-05-09T08:50:44.344Z,15.50
2019-05-09T08:53:12.799Z,15.40
2019-05-09T08:55:41.228Z,15.20
2019-05-09T08:58:09.693Z,15.20
2019-05-09T09:00:39.012Z,15.60
2019-05-09T09:03:08.084Z,15.70
2019-05-09T09:05:38.154Z,15.70
2019-05-09T09:08:08.367Z,15.90
2019-05-09T09:10:38.467Z,15.70
2019-05-09T09:13:08.796Z,16.00
2019-05-09T09:16:02.815Z,16.00
2019-05-09T09:18:08.545Z,16.20
2019-05-09T09:20:38.144Z,16.30
2019-05-09T09:23:08.829Z,16.40
2019-05-09T09:25:38.922Z,16.60
2019-05-09T09:28:08.796Z,16.80
2019-05-09T09:30:38.647Z,16.40
2019-05-09T09:33:11.291Z,16.40
2019-05-09T09:35:38.284Z,16.00
2019-05-09T09:38:09.098Z,15.90
2019-05-09T09:40:38.491Z,16.20
2019-05-09T09:43:09.131Z,16.20
2019-05-09T09:45:37.849Z,16.30
2019-05-09T09:48:08.995Z,16.30
2019-05-09T09:50:38.266Z,16.20
2019-05-09T09:53:08.777Z,16.20
2019-05-09T09:55:38.384Z,16.30
2019-05-09T09:58:08.192Z,16.30
2019-05-09T10:00:58.197Z,16.30
2019-05-09T10:03:25.822Z,16.40
2019-05-09T10:05:54.258Z,16.60
2019-05-09T10:08:23.535Z,16.70
2019-05-09T10:10:51.967Z,16.70
2019-05-09T10:13:20.476Z,16.70
2019-05-09T10:15:50.563Z,16.70
2019-05-09T10:18:29.670Z,16.70
2019-05-09T10:21:02.634Z,16.70
2019-05-09T10:23:31.070Z,16.60
2019-05-09T10:25:59.518Z,16.70
2019-05-09T10:28:30.156Z,16.70
2019-05-09T10:30:58.234Z,16.60
2019-05-09T10:33:28.022Z,16.50
2019-05-09T10:36:03.243Z,16.40
2019-05-09T10:38:27.964Z,16.30
2019-05-09T10:41:01.064Z,16.20
2019-05-09T10:43:38.015Z,16.00
2019-05-09T10:46:19.390Z,15.90
2019-05-09T10:48:49.737Z,15.80
2019-05-09T10:51:18.651Z,15.80
2019-05-09T10:53:48.147Z,16.00
2019-05-09T10:56:18.722Z,16.20
2019-05-09T10:58:48.209Z,16.40
2019-05-09T11:01:18.499Z,16.60
2019-05-09T11:03:48.237Z,17.00
2019-05-09T11:06:18.350Z,17.30
2019-05-09T11:08:47.847Z,17.60
2019-05-09T11:11:18.259Z,17.90
2019-05-09T11:13:48.168Z,18.00
2019-05-09T11:16:18.329Z,19.40
2019-05-09T11:18:48.248Z,17.80
2019-05-09T11:21:19.224Z,17.60
2019-05-09T11:23:48.814Z,17.50
2019-05-09T11:26:18.096Z,17.20
2019-05-09T11:28:46.817Z,17.00
2019-05-09T11:31:17.969Z,16.90
2019-05-09T11:33:48.103Z,17.00
2019-05-09T11:36:20.834Z,16.70
2019-05-09T11:38:45.787Z,16.40
2019-05-09T11:41:15.104Z,16.30
2019-05-09T11:43:43.886Z,16.10
2019-05-09T11:46:12.344Z,16.10
2019-05-09T11:48:40.774Z,16.20
2019-05-09T11:51:09.237Z,16.00
2019-05-09T11:53:40.001Z,16.20
2019-05-09T11:56:08.309Z,16.30
2019-05-09T11:58:37.971Z,16.30
2019-05-09T12:01:08.311Z,16.40
2019-05-09T12:03:38.843Z,16.20
2019-05-09T12:06:08.029Z,16.30
2019-05-09T12:08:38.705Z,16.40
2019-05-09T12:11:08.434Z,16.60
2019-05-09T12:13:37.979Z,16.80
2019-05-09T12:16:06.649Z,17.10
2019-05-09T12:18:35.095Z,17.10
2019-05-09T12:21:03.539Z,17.20
2019-05-09T12:23:31.982Z,17.30
2019-05-09T12:26:00.449Z,17.30
2019-05-09T12:28:28.880Z,17.30
2019-05-09T12:30:57.327Z,17.50
2019-05-09T12:33:28.218Z,17.50
2019-05-09T12:35:58.615Z,17.50
2019-05-09T12:38:27.774Z,17.90
2019-05-09T12:41:00.254Z,18.00
2019-05-09T12:43:28.317Z,17.80
2019-05-09T12:45:57.782Z,17.80
2019-05-09T12:48:27.935Z,17.90
2019-05-09T12:50:58.588Z,17.80
2019-05-09T12:53:28.053Z,17.80
2019-05-09T12:55:59.620Z,17.70
2019-05-09T12:58:28.666Z,17.70
2019-05-09T13:00:58.615Z,17.60
2019-05-09T13:03:28.575Z,17.40
2019-05-09T13:05:57.581Z,17.40
2019-05-09T13:08:27.890Z,17.60
2019-05-09T13:10:58.323Z,17.70
2019-05-09T13:13:30.225Z,17.80
2019-05-09T13:16:04.449Z,17.80
2019-05-09T13:18:50.342Z,17.60
2019-05-09T13:21:18.837Z,17.40
2019-05-09T13:23:51.892Z,17.60
2019-05-09T13:26:18.649Z,17.40
2019-05-09T13:28:48.878Z,17.50
2019-05-09T13:31:18.310Z,17.60
2019-05-09T13:33:48.679Z,17.60
2019-05-09T13:36:18.848Z,17.50
2019-05-09T13:38:57.584Z,17.40
2019-05-09T13:41:17.781Z,17.40
2019-05-09T13:43:53.463Z,17.30
2019-05-09T13:46:17.957Z,17.30
2019-05-09T13:49:05.942Z,17.40
2019-05-09T13:51:18.366Z,17.50
2019-05-09T13:53:48.428Z,17.50
2019-05-09T13:56:17.785Z,17.60
2019-05-09T13:58:48.594Z,17.60
2019-05-09T14:01:17.624Z,17.70
2019-05-09T14:03:48.813Z,17.60
2019-05-09T14:06:16.431Z,17.70
2019-05-09T14:08:44.877Z,17.60
2019-05-09T14:11:13.318Z,17.70
2019-05-09T14:13:41.944Z,17.60
2019-05-09T14:16:20.164Z,17.60
2019-05-09T14:18:40.565Z,17.60
2019-05-09T14:21:08.998Z,17.70
2019-05-09T14:23:48.678Z,17.90
2019-05-09T14:26:09.349Z,18.00
2019-05-09T14:28:37.791Z,18.10
2019-05-09T14:31:07.659Z,18.20
2019-05-09T14:33:38.793Z,18.20
2019-05-09T14:36:08.284Z,18.00
2019-05-09T14:38:39.103Z,17.90
2019-05-09T14:41:07.789Z,17.70
2019-05-09T14:43:39.318Z,17.70
2019-05-09T14:46:08.218Z,17.60
2019-05-09T14:48:36.772Z,17.50
2019-05-09T14:51:07.460Z,17.50
2019-05-09T14:53:35.417Z,17.50
2019-05-09T14:56:03.957Z,17.60
2019-05-09T14:58:32.473Z,17.70
2019-05-09T15:01:01.079Z,17.70
2019-05-09T15:03:29.559Z,17.70
2019-05-09T15:05:57.999Z,17.70
2019-05-09T15:08:27.935Z,17.70
2019-05-09T15:10:58.236Z,17.70
2019-05-09T15:13:28.619Z,17.70
2019-05-09T15:15:57.895Z,17.70
2019-05-09T15:18:26.503Z,17.70
2019-05-09T15:20:54.955Z,17.60
2019-05-09T15:23:23.442Z,17.60
2019-05-09T15:25:52.030Z,17.60
2019-05-09T15:28:20.607Z,17.60
2019-05-09T15:30:49.080Z,17.60
2019-05-09T15:33:17.742Z,17.60
2019-05-09T15:35:48.560Z,17.60
2019-05-09T15:38:18.103Z,17.50
2019-05-09T15:40:48.087Z,17.50
2019-05-09T15:43:18.619Z,18.20
2019-05-09T15:45:54.317Z,17.50
2019-05-09T15:48:22.798Z,17.50
2019-05-09T15:50:51.301Z,17.40
2019-05-09T15:53:19.790Z,17.30
2019-05-09T15:55:48.237Z,17.20
2019-05-09T15:58:18.682Z,17.10
2019-05-09T16:00:47.778Z,17.10
2019-05-09T16:03:18.545Z,17.00
2019-05-09T16:05:47.876Z,17.00
2019-05-09T16:08:18.529Z,17.00
2019-05-09T16:10:46.710Z,17.00
2019-05-09T16:13:17.547Z,17.10
2019-05-09T16:15:45.369Z,17.20
2019-05-09T16:18:13.806Z,17.30
2019-05-09T16:20:42.257Z,17.30
2019-05-09T16:23:10.725Z,17.30
2019-05-09T16:25:39.241Z,17.30
2019-05-09T16:28:08.196Z,17.30
2019-05-09T16:30:38.322Z,17.20
2019-05-09T16:33:08.126Z,17.10
2019-05-09T16:35:38.199Z,17.10
2019-05-09T16:38:10.636Z,17.00
2019-05-09T16:40:38.665Z,17.00
2019-05-09T16:43:09.084Z,16.90
2019-05-09T16:45:38.050Z,16.90
2019-05-09T16:48:11.235Z,16.90
2019-05-09T16:50:39.961Z,16.90
2019-05-09T16:53:09.331Z,16.90
2019-05-09T16:55:38.902Z,16.90
2019-05-09T16:58:08.682Z,16.80
2019-05-09T17:00:48.275Z,16.80
2019-05-09T17:03:17.664Z,16.80
2019-05-09T17:05:46.321Z,16.80
2019-05-09T17:08:14.822Z,16.70
2019-05-09T17:10:43.341Z,16.70
2019-05-09T17:13:11.772Z,16.60
2019-05-09T17:15:40.295Z,16.60
2019-05-09T17:18:09.949Z,16.60
2019-05-09T17:20:43.199Z,16.60
2019-05-09T17:23:16.206Z,16.60
2019-05-09T17:25:44.650Z,16.60
2019-05-09T17:28:13.103Z,16.50
2019-05-09T17:30:41.640Z,16.40
2019-05-09T17:33:10.198Z,16.40
2019-05-09T17:35:38.824Z,16.30
2019-05-09T17:38:08.706Z,16.30
2019-05-09T17:40:39.044Z,16.20
2019-05-09T17:43:08.308Z,16.20
2019-05-09T17:45:41.776Z,16.10
2019-05-09T17:48:08.552Z,16.00
2019-05-09T17:50:38.376Z,16.00
2019-05-09T17:53:08.571Z,15.90
2019-05-09T17:55:38.085Z,15.90
2019-05-09T17:58:08.704Z,15.80
2019-05-09T18:00:37.937Z,15.80
2019-05-09T18:03:06.690Z,15.80
2019-05-09T18:05:35.926Z,15.70
2019-05-09T18:08:07.826Z,15.60
2019-05-09T18:10:37.935Z,15.60
2019-05-09T18:13:07.910Z,15.60
2019-05-09T18:15:37.721Z,15.60
2019-05-09T18:18:06.347Z,15.50
2019-05-09T18:20:34.771Z,15.50
2019-05-09T18:23:03.517Z,15.40
2019-05-09T18:25:31.986Z,15.40
2019-05-09T18:28:00.458Z,15.30
2019-05-09T18:30:28.923Z,15.20
2019-05-09T18:32:59.056Z,15.10
2019-05-09T18:35:29.121Z,15.10
2019-05-09T18:37:58.835Z,14.90
2019-05-09T18:40:28.148Z,14.80
2019-05-09T18:42:58.362Z,14.80
2019-05-09T18:45:28.233Z,14.70
2019-05-09T18:47:58.016Z,14.80
2019-05-09T18:50:26.709Z,14.80
2019-05-09T18:52:55.148Z,14.70
2019-05-09T18:55:23.595Z,14.70
2019-05-09T18:57:52.122Z,14.70
2019-05-09T19:00:21.467Z,14.70
2019-05-09T19:02:50.422Z,14.70
2019-05-09T19:05:20.162Z,14.70
2019-05-09T19:07:48.696Z,14.70
2019-05-09T19:10:17.385Z,14.60
2019-05-09T19:12:45.838Z,14.50
2019-05-09T19:15:28.334Z,14.40
2019-05-09T19:18:13.301Z,14.40
2019-05-09T19:20:49.077Z,14.30
2019-05-09T19:23:17.550Z,14.30
2019-05-09T19:25:45.978Z,14.30
2019-05-09T19:28:14.433Z,14.30
2019-05-09T19:30:42.861Z,14.30
2019-05-09T19:33:11.281Z,14.40
2019-05-09T19:35:39.764Z,14.30
2019-05-09T19:38:08.295Z,14.30
2019-05-09T19:40:36.780Z,14.30
2019-05-09T19:43:05.234Z,14.30
2019-05-09T19:45:33.688Z,14.30
2019-05-09T19:48:02.116Z,14.30
2019-05-09T19:50:30.561Z,14.30
2019-05-09T19:52:58.995Z,14.20
2019-05-09T19:55:27.462Z,14.20
2019-05-09T19:57:55.903Z,14.10
2019-05-09T20:00:24.604Z,14.10
2019-05-09T20:02:53.032Z,14.10
2019-05-09T20:05:21.502Z,14.00
2019-05-09T20:07:49.946Z,14.00
2019-05-09T20:10:20.196Z,14.00
2019-05-09T20:13:06.518Z,14.00
2019-05-09T20:15:34.994Z,14.00
2019-05-09T20:18:03.422Z,14.00
2019-05-09T20:20:31.857Z,14.00
2019-05-09T20:23:00.293Z,13.90
2019-05-09T20:25:28.847Z,13.90
2019-05-09T20:27:57.374Z,13.90
2019-05-09T20:30:25.865Z,13.80
2019-05-09T20:32:54.291Z,13.80
2019-05-09T20:35:22.741Z,13.80
2019-05-09T20:37:51.431Z,13.80
2019-05-09T20:40:20.077Z,13.80
2019-05-09T20:42:48.687Z,13.80
2019-05-09T20:45:17.326Z,13.80
2019-05-09T20:47:45.947Z,13.70
2019-05-09T20:50:14.655Z,13.70
2019-05-09T20:52:43.274Z,13.70
2019-05-09T20:55:12.008Z,13.70
2019-05-09T20:57:40.613Z,13.70
2019-05-09T21:00:10.799Z,13.60
2019-05-09T21:02:39.422Z,13.50
2019-05-09T21:05:08.054Z,13.50
2019-05-09T21:07:36.670Z,13.40
2019-05-09T21:10:06.926Z,13.40
2019-05-09T21:12:35.605Z,13.30
2019-05-09T21:15:06.190Z,13.30
2019-05-09T21:17:34.887Z,13.20
2019-05-09T21:20:04.469Z,13.20
2019-05-09T21:22:33.093Z,13.20
2019-05-09T21:25:01.791Z,13.20
2019-05-09T21:27:30.498Z,13.10
2019-05-09T21:29:59.124Z,13.10
2019-05-09T21:32:27.761Z,13.00
2019-05-09T21:34:56.285Z,13.10
2019-05-09T21:37:24.735Z,13.00
2019-05-09T21:39:53.211Z,12.90
2019-05-09T21:42:21.656Z,12.70
2019-05-09T21:44:50.087Z,12.60
2019-05-09T21:47:18.558Z,12.50
2019-05-09T21:49:46.980Z,12.40
2019-05-09T21:52:15.425Z,12.50
2019-05-09T21:54:43.867Z,12.60
2019-05-09T21:57:12.310Z,12.70
2019-05-09T21:59:40.753Z,12.80
2019-05-09T22:02:09.343Z,12.80
2019-05-09T22:04:37.786Z,12.80
2019-05-09T22:07:06.305Z,12.70
2019-05-09T22:09:34.744Z,12.70
2019-05-09T22:12:03.350Z,12.60
2019-05-09T22:14:31.835Z,12.50
2019-05-09T22:17:01.942Z,12.40
2019-05-09T22:19:30.380Z,12.30
2019-05-09T22:21:58.841Z,12.30
2019-05-09T22:24:27.275Z,12.20
2019-05-09T22:26:55.738Z,12.20
2019-05-09T22:29:24.176Z,12.20
2019-05-09T22:31:52.633Z,12.20
2019-05-09T22:34:21.121Z,12.20
2019-05-09T22:36:49.589Z,12.10
2019-05-09T22:39:18.085Z,12.20
2019-05-09T22:41:46.553Z,12.10
2019-05-09T22:44:14.982Z,12.10
2019-05-09T22:46:43.437Z,12.10
2019-05-09T22:49:11.869Z,12.00
2019-05-09T22:51:40.332Z,11.90
2019-05-09T22:54:12.689Z,11.90
2019-05-09T22:56:38.944Z,11.80
2019-05-09T22:59:07.395Z,11.90
2019-05-09T23:01:35.895Z,11.80
2019-05-09T23:04:04.337Z,11.80
2019-05-09T23:06:32.795Z,11.80
2019-05-09T23:09:01.332Z,11.70
2019-05-09T23:11:29.752Z,11.60
2019-05-09T23:13:58.229Z,11.60
2019-05-09T23:16:28.351Z,11.50
2019-05-09T23:18:56.805Z,11.50
2019-05-09T23:21:29.522Z,11.50
2019-05-09T23:24:02.506Z,11.50
2019-05-09T23:26:31.016Z,11.40
2019-05-09T23:28:59.544Z,11.40
2019-05-09T23:31:29.678Z,11.40
2019-05-09T23:33:58.139Z,11.40
2019-05-09T23:36:26.570Z,11.30
2019-05-09T23:39:14.920Z,11.20
2019-05-09T23:41:43.355Z,11.20
2019-05-09T23:44:11.815Z,11.10
2019-05-09T23:46:40.254Z,11.10
2019-05-09T23:49:08.709Z,11.10
2019-05-09T23:51:49.546Z,11.20
2019-05-09T23:54:48.045Z,11.20
2019-05-09T23:57:28.625Z,11.20
